aviador You're here:

KMKY Decoded Metar

in
Report Time2018-02-19 11:56:00
UTC Time2018-02-19 12:06:25
Flight Rules vfr VFR
Wind050° at 05 kt
W.Decomp.*RWY 35: 2.5 kt HW 4.3 kt RCW
W.Rank050° ranks 2
Current wind is below 050° avg. (6.1)
Visibility9999 m
Phenomena:N/A
Clouds:N/A
Expected CloudBase > 400 ft AGL from Temp-Dew spread
CeilingNone
Temp18°C
Dew Point17°C (94% RH)
QNH1024 hPa
Raw Report
KMKY 191156Z AUTO 05005KT 10SM CLR 18/17 A3024 RMK AO2 SLP241
T01780172 10200 20172 53010=

Extra information for KMKY:More info

Social comments